Time;durP1;ratioP1;P1;durP2;ratioP2;P2;SDS_P1;SDS_P2;PMS_P1;PMS_P2;Temp;Humidity;BMP_temperature;BMP_pressure;BME280_temperature;BME280_humidity;BME280_pressure;Samples;Min_cycle;Max_cycle;Signal;HPM_P1;HPM_P2
2022/09/23 00:00:21;;;;;;;0.20;0.10;;;;;;;;;;4163390;28;20103;-40
2022/09/23 00:02:22;;;;;;;0.10;0.10;;;;;;;;;;4162495;28;20054;-41
2022/09/23 00:04:24;;;;;;;0.35;0.22;;;;;;;;;;4160758;28;20119;-40
2022/09/23 00:06:28;;;;;;;0.43;0.20;;;;;;;;;;4163728;28;20101;-41
2022/09/23 00:08:30;;;;;;;0.45;0.20;;;;;;;;;;4163291;28;20053;-39
2022/09/23 00:10:34;;;;;;;0.43;0.10;;;;;;;;;;4163359;28;20058;-40
2022/09/23 00:12:35;;;;;;;0.20;0.10;;;;;;;;;;4163521;28;20099;-40
2022/09/23 00:14:37;;;;;;;0.20;0.17;;;;;;;;;;4163143;28;20458;-40
2022/09/23 00:16:38;;;;;;;0.30;0.20;;;;;;;;;;4162320;28;20053;-40
2022/09/23 00:18:40;;;;;;;0.03;0.00;;;;;;;;;;4161654;28;20053;-40
2022/09/23 00:20:41;;;;;;;0.20;0.17;;;;;;;;;;4163367;28;20382;-40
2022/09/23 00:22:43;;;;;;;0.25;0.10;;;;;;;;;;4163624;28;20058;-40
2022/09/23 00:24:44;;;;;;;0.15;0.10;;;;;;;;;;4145658;28;20561;-40
2022/09/23 00:26:45;;;;;;;0.10;0.10;;;;;;;;;;4163704;28;20100;-40
2022/09/23 00:28:47;;;;;;;0.30;0.13;;;;;;;;;;4161967;28;20599;-40
2022/09/23 00:30:49;;;;;;;0.38;0.17;;;;;;;;;;4163236;28;20049;-39
2022/09/23 00:32:51;;;;;;;0.40;0.10;;;;;;;;;;4165243;28;20497;-39
2022/09/23 00:34:52;;;;;;;0.20;0.20;;;;;;;;;;4166305;28;20064;-40
2022/09/23 00:36:54;;;;;;;0.25;0.20;;;;;;;;;;4166427;28;20057;-39
2022/09/23 00:38:56;;;;;;;0.38;0.20;;;;;;;;;;4149040;28;20054;-39
2022/09/23 00:40:57;;;;;;;0.35;0.20;;;;;;;;;;4166775;28;20057;-39
2022/09/23 00:42:58;;;;;;;0.60;0.10;;;;;;;;;;4166464;28;20443;-39
2022/09/23 00:45:18;;;;;;;0.00;0.00;;;;;;;;;;4166521;28;20111;-39
2022/09/23 00:47:37;;;;;;;0.20;0.20;;;;;;;;;;4166373;28;20050;-39
2022/09/23 00:49:40;;;;;;;0.30;0.28;;;;;;;;;;4165801;28;20099;-39
2022/09/23 00:51:47;;;;;;;0.10;0.10;;;;;;;;;;4166336;28;20555;-39
2022/09/23 00:53:50;;;;;;;0.10;0.10;;;;;;;;;;4164990;28;20425;-40
2022/09/23 00:55:55;;;;;;;0.22;0.17;;;;;;;;;;4166500;28;20057;-40
2022/09/23 00:57:58;;;;;;;0.40;0.30;;;;;;;;;;4166520;28;20254;-41
2022/09/23 01:00:00;;;;;;;0.35;0.25;;;;;;;;;;4166166;28;20737;-39
2022/09/23 01:02:01;;;;;;;0.30;0.10;;;;;;;;;;4164880;28;20053;-39
2022/09/23 01:04:02;;;;;;;0.15;0.15;;;;;;;;;;4163571;28;20088;-40
2022/09/23 01:06:04;;;;;;;0.20;0.13;;;;;;;;;;4166149;28;20450;-39
2022/09/23 01:08:06;;;;;;;0.45;0.10;;;;;;;;;;4164906;28;20443;-39
2022/09/23 01:10:08;;;;;;;0.20;0.10;;;;;;;;;;4164682;28;20061;-40
2022/09/23 01:12:24;;;;;;;0.10;0.10;;;;;;;;;;4164744;28;20075;-39
2022/09/23 01:14:48;;;;;;;0.10;0.10;;;;;;;;;;4165982;28;20053;-41
2022/09/23 01:17:03;;;;;;;0.20;0.20;;;;;;;;;;4165727;28;20099;-39
2022/09/23 01:19:42;;;;;;;0.15;0.10;;;;;;;;;;4164196;28;20061;-39
2022/09/23 01:21:46;;;;;;;0.10;0.10;;;;;;;;;;4166171;28;20119;-41
2022/09/23 01:24:19;;;;;;;0.32;0.10;;;;;;;;;;4164693;28;20053;-41
2022/09/23 01:26:44;;;;;;;0.17;0.10;;;;;;;;;;4164464;28;20107;-41
2022/09/23 01:29:24;;;;;;;0.20;0.10;;;;;;;;;;4164521;28;20115;-41
2022/09/23 01:31:36;;;;;;;0.13;0.13;;;;;;;;;;4165708;28;20571;-39
2022/09/23 01:34:08;;;;;;;0.17;0.10;;;;;;;;;;4163972;28;20417;-40
2022/09/23 01:36:19;;;;;;;0.30;0.20;;;;;;;;;;4164246;28;20057;-40
2022/09/23 01:38:34;;;;;;;0.20;0.10;;;;;;;;;;4165975;28;20053;-39
2022/09/23 01:40:49;;;;;;;0.25;0.20;;;;;;;;;;4165591;28;20049;-39
2022/09/23 01:42:56;;;;;;;0.20;0.20;;;;;;;;;;4164457;28;20061;-40
2022/09/23 01:45:09;;;;;;;0.10;0.10;;;;;;;;;;4163536;28;20065;-40
2022/09/23 01:47:13;;;;;;;0.38;0.10;;;;;;;;;;4164372;28;20453;-39
2022/09/23 01:49:39;;;;;;;0.30;0.10;;;;;;;;;;4165047;28;20049;-40
2022/09/23 01:51:44;;;;;;;0.10;0.10;;;;;;;;;;4164482;28;20057;-40
2022/09/23 01:54:06;;;;;;;0.10;0.10;;;;;;;;;;4165239;28;20053;-39
2022/09/23 01:56:12;;;;;;;0.20;0.20;;;;;;;;;;4163928;28;20053;-40
2022/09/23 01:58:17;;;;;;;0.15;0.15;;;;;;;;;;4164277;28;20065;-39
2022/09/23 02:00:21;;;;;;;0.35;0.25;;;;;;;;;;4165337;28;20049;-40
2022/09/23 02:02:28;;;;;;;0.10;0.10;;;;;;;;;;4164003;28;20087;-39
2022/09/23 02:04:38;;;;;;;0.17;0.10;;;;;;;;;;4162627;28;20065;-39
2022/09/23 02:06:45;;;;;;;0.10;0.10;;;;;;;;;;4147716;28;20050;-40
2022/09/23 02:08:51;;;;;;;0.22;0.10;;;;;;;;;;4147539;28;20061;-39
2022/09/23 02:10:59;;;;;;;0.57;0.20;;;;;;;;;;4147753;28;20050;-39
2022/09/23 02:13:14;;;;;;;0.10;0.10;;;;;;;;;;4147547;28;20414;-39
2022/09/23 02:15:23;;;;;;;0.22;0.10;;;;;;;;;;4147532;28;20092;-39
2022/09/23 02:17:30;;;;;;;0.15;0.10;;;;;;;;;;4163951;28;20053;-41
2022/09/23 02:19:54;;;;;;;0.10;0.10;;;;;;;;;;4164633;28;20535;-41
2022/09/23 02:22:12;;;;;;;0.10;0.10;;;;;;;;;;4161147;28;20057;-41
2022/09/23 02:24:17;;;;;;;0.20;0.20;;;;;;;;;;4145228;28;20092;-41
2022/09/23 02:26:20;;;;;;;0.10;0.10;;;;;;;;;;4159583;28;20053;-41
2022/09/23 02:28:30;;;;;;;0.28;0.20;;;;;;;;;;4145436;28;20116;-41
2022/09/23 02:30:42;;;;;;;0.10;0.10;;;;;;;;;;4145327;28;20580;-41
2022/09/23 02:33:03;;;;;;;0.30;0.20;;;;;;;;;;4146357;28;20061;-41
2022/09/23 02:35:31;;;;;;;0.15;0.10;;;;;;;;;;4145102;28;20104;-41
2022/09/23 02:37:52;;;;;;;0.40;0.20;;;;;;;;;;4145133;28;20058;-41
2022/09/23 02:39:59;;;;;;;0.10;0.10;;;;;;;;;;4129230;28;20089;-41
2022/09/23 02:42:06;;;;;;;0.10;0.10;;;;;;;;;;4146844;28;20112;-41
2022/09/23 02:44:13;;;;;;;0.10;0.10;;;;;;;;;;4144650;28;20271;-41
2022/09/23 02:46:15;;;;;;;0.32;0.20;;;;;;;;;;4146224;28;20054;-41
2022/09/23 02:48:22;;;;;;;0.30;0.20;;;;;;;;;;4146361;28;20062;-41
2022/09/23 02:50:23;;;;;;;0.85;0.30;;;;;;;;;;4152188;28;20131;-41
2022/09/23 02:52:26;;;;;;;0.20;0.20;;;;;;;;;;4162749;28;20524;-41
2022/09/23 02:54:28;;;;;;;0.10;0.10;;;;;;;;;;4161148;28;20430;-41
2022/09/23 02:56:29;;;;;;;0.43;0.10;;;;;;;;;;4161173;28;20183;-39
2022/09/23 02:58:30;;;;;;;0.15;0.15;;;;;;;;;;4161311;28;20103;-39
2022/09/23 03:00:48;;;;;;;0.20;0.17;;;;;;;;;;4161364;28;20065;-39
2022/09/23 03:03:05;;;;;;;0.20;0.20;;;;;;;;;;4161541;28;20155;-40
2022/09/23 03:05:22;;;;;;;0.00;0.00;;;;;;;;;;4159762;28;20168;-40
2022/09/23 03:07:31;;;;;;;0.30;0.10;;;;;;;;;;4144276;28;20088;-40
2022/09/23 03:09:43;;;;;;;0.28;0.20;;;;;;;;;;4161849;28;20053;-41
2022/09/23 03:11:49;;;;;;;0.43;0.20;;;;;;;;;;4162587;28;20555;-40
2022/09/23 03:14:06;;;;;;;0.30;0.20;;;;;;;;;;4162789;28;20057;-40
2022/09/23 03:16:10;;;;;;;0.10;0.10;;;;;;;;;;4164045;28;20409;-40
2022/09/23 03:18:17;;;;;;;0.47;0.13;;;;;;;;;;4164160;28;20053;-40
2022/09/23 03:20:27;;;;;;;0.30;0.20;;;;;;;;;;4162461;28;20108;-42
2022/09/23 03:22:34;;;;;;;0.10;0.10;;;;;;;;;;4163989;28;20539;-44
2022/09/23 03:24:38;;;;;;;0.10;0.10;;;;;;;;;;4163011;28;20050;-40
2022/09/23 03:26:43;;;;;;;0.50;0.10;;;;;;;;;;4146560;28;20106;-40
2022/09/23 03:28:44;;;;;;;0.20;0.20;;;;;;;;;;4162693;28;20063;-41
2022/09/23 03:30:47;;;;;;;0.30;0.20;;;;;;;;;;4162639;28;20057;-40
2022/09/23 03:32:50;;;;;;;0.10;0.10;;;;;;;;;;4164042;28;20053;-40
2022/09/23 03:34:53;;;;;;;0.30;0.20;;;;;;;;;;4145986;28;20126;-40
2022/09/23 03:37:00;;;;;;;0.68;0.20;;;;;;;;;;4162385;28;20076;-40
2022/09/23 03:39:15;;;;;;;0.10;0.10;;;;;;;;;;4162555;28;20060;-40
2022/09/23 03:41:22;;;;;;;0.50;0.30;;;;;;;;;;4162502;28;20155;-40
2022/09/23 03:43:23;;;;;;;0.47;0.15;;;;;;;;;;4163928;28;20060;-42
2022/09/23 03:45:30;;;;;;;0.50;0.10;;;;;;;;;;4162403;28;20060;-40
2022/09/23 03:47:32;;;;;;;0.32;0.20;;;;;;;;;;4162869;28;20045;-40
2022/09/23 03:49:36;;;;;;;0.10;0.10;;;;;;;;;;4163276;28;20115;-40
2022/09/23 03:51:37;;;;;;;0.32;0.10;;;;;;;;;;4162300;28;20064;-40
2022/09/23 03:53:38;;;;;;;0.40;0.25;;;;;;;;;;4163750;28;20053;-41
2022/09/23 03:55:40;;;;;;;0.10;0.10;;;;;;;;;;4163848;28;20099;-41
2022/09/23 03:57:41;;;;;;;0.10;0.10;;;;;;;;;;4163581;28;20115;-40
2022/09/23 03:59:42;;;;;;;0.30;0.10;;;;;;;;;;4163438;28;20057;-41
2022/09/23 04:01:44;;;;;;;0.25;0.10;;;;;;;;;;4146202;28;20061;-40
2022/09/23 04:03:45;;;;;;;0.30;0.20;;;;;;;;;;4162797;28;20497;-40
2022/09/23 04:05:47;;;;;;;0.20;0.10;;;;;;;;;;4163663;28;20057;-40
2022/09/23 04:07:49;;;;;;;0.10;0.10;;;;;;;;;;4163489;28;20477;-41
2022/09/23 04:09:51;;;;;;;0.50;0.10;;;;;;;;;;4163413;28;20054;-41
2022/09/23 04:11:53;;;;;;;0.20;0.20;;;;;;;;;;4163463;28;20354;-40
2022/09/23 04:13:54;;;;;;;0.20;0.20;;;;;;;;;;4162765;28;20477;-41
2022/09/23 04:15:55;;;;;;;0.17;0.10;;;;;;;;;;4162199;28;20390;-40
2022/09/23 04:17:56;;;;;;;0.20;0.10;;;;;;;;;;4163661;28;20115;-42
2022/09/23 04:20:16;;;;;;;0.10;0.10;;;;;;;;;;4163248;28;20048;-40
2022/09/23 04:22:17;;;;;;;0.20;0.20;;;;;;;;;;4146088;28;20456;-40
2022/09/23 04:24:19;;;;;;;0.20;0.10;;;;;;;;;;4163484;28;20053;-40
2022/09/23 04:26:20;;;;;;;0.10;0.10;;;;;;;;;;4163623;28;20053;-41
2022/09/23 04:28:21;;;;;;;0.13;0.10;;;;;;;;;;4163510;28;20054;-40
2022/09/23 04:30:23;;;;;;;0.22;0.20;;;;;;;;;;4163563;28;20111;-40
2022/09/23 04:32:24;;;;;;;0.10;0.10;;;;;;;;;;4163273;28;20123;-41
2022/09/23 04:34:25;;;;;;;0.10;0.10;;;;;;;;;;4161779;28;20050;-40
2022/09/23 04:36:28;;;;;;;0.35;0.13;;;;;;;;;;4163125;28;20076;-40
2022/09/23 04:38:29;;;;;;;0.10;0.10;;;;;;;;;;4163127;28;20080;-40
2022/09/23 04:40:31;;;;;;;0.10;0.10;;;;;;;;;;4163246;28;20100;-40
2022/09/23 04:42:32;;;;;;;0.30;0.10;;;;;;;;;;4162018;28;20058;-40
2022/09/23 04:44:33;;;;;;;0.30;0.10;;;;;;;;;;4163377;28;20207;-40
2022/09/23 04:46:34;;;;;;;0.20;0.20;;;;;;;;;;4163247;28;20107;-40
2022/09/23 04:48:37;;;;;;;0.30;0.20;;;;;;;;;;4162780;28;20493;-40
2022/09/23 04:50:39;;;;;;;0.10;0.10;;;;;;;;;;4162908;28;20050;-40
2022/09/23 04:52:40;;;;;;;0.20;0.10;;;;;;;;;;4163530;28;20107;-39
2022/09/23 04:54:41;;;;;;;0.20;0.20;;;;;;;;;;4162949;28;20057;-39
2022/09/23 04:56:42;;;;;;;0.47;0.25;;;;;;;;;;4163105;28;20168;-40
2022/09/23 04:58:44;;;;;;;0.10;0.10;;;;;;;;;;4163084;28;20650;-39
2022/09/23 05:00:46;;;;;;;0.30;0.22;;;;;;;;;;4156484;28;20498;-39
2022/09/23 05:02:48;;;;;;;0.30;0.20;;;;;;;;;;4144473;28;20069;-39
2022/09/23 05:04:49;;;;;;;0.10;0.10;;;;;;;;;;4143912;28;20065;-42
2022/09/23 05:06:51;;;;;;;0.52;0.35;;;;;;;;;;4144756;28;20057;-39
2022/09/23 05:08:53;;;;;;;0.20;0.20;;;;;;;;;;4144733;28;20058;-41
2022/09/23 05:10:58;;;;;;;0.30;0.20;;;;;;;;;;4143354;28;20061;-39
2022/09/23 05:12:59;;;;;;;0.28;0.20;;;;;;;;;;4144118;28;20362;-39
2022/09/23 05:15:01;;;;;;;0.28;0.20;;;;;;;;;;4144164;28;20061;-40
2022/09/23 05:17:02;;;;;;;0.30;0.25;;;;;;;;;;4142971;28;20049;-41
2022/09/23 05:19:04;;;;;;;0.20;0.20;;;;;;;;;;4144690;28;20066;-41
2022/09/23 05:21:05;;;;;;;0.30;0.28;;;;;;;;;;4147313;28;20108;-41
2022/09/23 05:23:07;;;;;;;0.30;0.20;;;;;;;;;;4147459;28;20062;-39
2022/09/23 05:25:08;;;;;;;1.65;0.40;;;;;;;;;;4157511;28;20056;-39
2022/09/23 05:27:09;;;;;;;0.47;0.30;;;;;;;;;;4162942;28;20103;-39
2022/09/23 05:29:10;;;;;;;0.40;0.30;;;;;;;;;;4163422;28;20492;-39
2022/09/23 05:31:15;;;;;;;0.60;0.32;;;;;;;;;;4163743;28;20061;-40
2022/09/23 05:33:16;;;;;;;0.35;0.30;;;;;;;;;;4163254;28;20063;-41
2022/09/23 05:35:17;;;;;;;0.43;0.20;;;;;;;;;;4158450;28;20116;-39
2022/09/23 05:37:18;;;;;;;0.93;0.20;;;;;;;;;;4160355;28;20152;-39
2022/09/23 05:39:19;;;;;;;0.95;0.30;;;;;;;;;;4157708;28;20064;-39
2022/09/23 05:41:21;;;;;;;2.38;0.28;;;;;;;;;;4142809;28;20053;-40
2022/09/23 05:43:23;;;;;;;0.55;0.30;;;;;;;;;;4157016;28;20057;-39
2022/09/23 05:45:25;;;;;;;0.30;0.20;;;;;;;;;;4154815;28;20477;-40
2022/09/23 05:47:26;;;;;;;0.47;0.35;;;;;;;;;;4153040;28;20064;-39
2022/09/23 05:49:28;;;;;;;0.60;0.30;;;;;;;;;;4157831;28;20469;-39
2022/09/23 05:51:30;;;;;;;0.32;0.30;;;;;;;;;;4156511;28;20151;-41
2022/09/23 05:53:31;;;;;;;2.33;0.32;;;;;;;;;;4152208;28;20735;-41
2022/09/23 05:55:32;;;;;;;0.60;0.40;;;;;;;;;;4156123;28;20085;-41
2022/09/23 05:57:33;;;;;;;0.57;0.30;;;;;;;;;;4157670;28;20167;-39
2022/09/23 05:59:34;;;;;;;0.65;0.25;;;;;;;;;;4159973;28;20143;-39
2022/09/23 06:01:37;;;;;;;2.03;0.40;;;;;;;;;;4161087;28;20058;-39
2022/09/23 06:03:38;;;;;;;0.40;0.20;;;;;;;;;;4158219;28;20099;-39
2022/09/23 06:05:40;;;;;;;1.70;0.57;;;;;;;;;;4155800;28;20108;-39
2022/09/23 06:07:41;;;;;;;0.57;0.45;;;;;;;;;;4159304;28;20049;-39
2022/09/23 06:09:42;;;;;;;1.10;0.30;;;;;;;;;;4155271;28;20401;-39
2022/09/23 06:11:44;;;;;;;0.68;0.43;;;;;;;;;;4157056;28;20103;-40
2022/09/23 06:14:05;;;;;;;0.77;0.30;;;;;;;;;;4159270;28;20061;-41
2022/09/23 06:16:11;;;;;;;0.40;0.30;;;;;;;;;;4158391;28;20135;-42
2022/09/23 06:18:12;;;;;;;0.52;0.30;;;;;;;;;;4157862;28;20060;-39
2022/09/23 06:20:14;;;;;;;1.25;0.30;;;;;;;;;;4156203;28;20057;-40
2022/09/23 06:22:17;;;;;;;0.52;0.30;;;;;;;;;;4154343;28;20061;-40
2022/09/23 06:24:18;;;;;;;1.00;0.35;;;;;;;;;;4151546;28;20491;-47
2022/09/23 06:26:20;;;;;;;0.70;0.40;;;;;;;;;;4150556;28;20068;-40
2022/09/23 06:28:21;;;;;;;3.33;0.30;;;;;;;;;;4155625;28;20053;-41
2022/09/23 06:30:23;;;;;;;0.35;0.30;;;;;;;;;;4147109;28;20076;-41
2022/09/23 06:32:24;;;;;;;0.60;0.30;;;;;;;;;;4156051;28;20057;-40
2022/09/23 06:34:26;;;;;;;3.17;0.40;;;;;;;;;;4154867;28;20054;-40
2022/09/23 06:36:27;;;;;;;1.38;0.52;;;;;;;;;;4158241;28;20870;-41
2022/09/23 06:38:29;;;;;;;0.63;0.40;;;;;;;;;;4139774;28;20133;-40
2022/09/23 06:40:30;;;;;;;0.80;0.50;;;;;;;;;;4154110;28;20394;-40
2022/09/23 06:42:31;;;;;;;0.57;0.47;;;;;;;;;;4156855;28;20045;-41
2022/09/23 06:44:32;;;;;;;1.40;0.50;;;;;;;;;;4157934;28;20049;-41
2022/09/23 06:46:35;;;;;;;0.82;0.45;;;;;;;;;;4154614;28;20096;-40
2022/09/23 06:48:37;;;;;;;1.65;0.40;;;;;;;;;;4151588;28;20057;-40
2022/09/23 06:50:39;;;;;;;0.80;0.50;;;;;;;;;;4152758;28;20546;-40
2022/09/23 06:52:40;;;;;;;0.40;0.30;;;;;;;;;;4156131;28;20049;-41
2022/09/23 06:54:42;;;;;;;1.45;0.40;;;;;;;;;;4158605;28;20080;-41
2022/09/23 06:56:46;;;;;;;1.60;0.63;;;;;;;;;;4139986;28;21387;-41
2022/09/23 06:58:47;;;;;;;1.10;0.30;;;;;;;;;;4157472;28;21198;-39
2022/09/23 07:00:48;;;;;;;1.23;0.32;;;;;;;;;;4149800;28;20057;-47
2022/09/23 07:02:50;;;;;;;1.60;0.50;;;;;;;;;;4154025;28;20064;-42
2022/09/23 07:04:51;;;;;;;1.15;0.30;;;;;;;;;;4152149;28;20057;-40
2022/09/23 07:06:54;;;;;;;0.77;0.38;;;;;;;;;;4155614;28;20068;-43
2022/09/23 07:08:56;;;;;;;0.47;0.40;;;;;;;;;;4152662;28;20500;-41
2022/09/23 07:10:58;;;;;;;1.95;0.40;;;;;;;;;;4156774;28;20064;-42
2022/09/23 07:13:00;;;;;;;0.20;0.20;;;;;;;;;;4154019;28;20069;-46
2022/09/23 07:15:02;;;;;;;1.23;0.50;;;;;;;;;;4152653;28;20084;-39
2022/09/23 07:17:05;;;;;;;0.63;0.40;;;;;;;;;;4157424;28;20112;-39
2022/09/23 07:19:06;;;;;;;0.82;0.40;;;;;;;;;;4156422;28;20061;-39
2022/09/23 07:21:15;;;;;;;2.25;0.45;;;;;;;;;;4155625;28;20061;-38
2022/09/23 07:23:17;;;;;;;0.85;0.30;;;;;;;;;;4157873;28;20061;-38
2022/09/23 07:25:18;;;;;;;0.70;0.30;;;;;;;;;;4153552;28;20061;-38
2022/09/23 07:27:19;;;;;;;1.15;0.50;;;;;;;;;;4153940;28;20049;-38
2022/09/23 07:29:21;;;;;;;1.00;0.38;;;;;;;;;;4153863;28;20057;-38
2022/09/23 07:31:22;;;;;;;1.40;0.47;;;;;;;;;;4154570;28;20061;-39
2022/09/23 07:33:24;;;;;;;0.50;0.35;;;;;;;;;;4153644;28;20050;-38
2022/09/23 07:35:26;;;;;;;0.68;0.28;;;;;;;;;;4150941;28;20115;-39
2022/09/23 07:37:27;;;;;;;0.35;0.20;;;;;;;;;;4154659;28;20389;-39
2022/09/23 07:39:29;;;;;;;1.42;0.20;;;;;;;;;;4154828;28;20755;-39
2022/09/23 07:43:54;;;;;;;1.17;0.40;;;;;;;;;;4150207;28;20517;-39
2022/09/23 07:45:55;;;;;;;0.28;0.25;;;;;;;;;;4155447;28;20057;-39
2022/09/23 07:47:56;;;;;;;0.68;0.32;;;;;;;;;;4154444;28;20143;-39
2022/09/23 07:49:57;;;;;;;1.45;0.40;;;;;;;;;;4153288;28;20061;-39
2022/09/23 07:51:59;;;;;;;0.70;0.30;;;;;;;;;;4157487;28;20061;-39
2022/09/23 07:54:00;;;;;;;0.68;0.30;;;;;;;;;;4154222;28;20402;-39
2022/09/23 07:56:05;;;;;;;0.43;0.38;;;;;;;;;;4150760;28;20057;-39
2022/09/23 07:58:06;;;;;;;1.38;0.47;;;;;;;;;;4152835;28;20060;-39
2022/09/23 08:00:08;;;;;;;1.30;0.38;;;;;;;;;;4152362;28;20115;-39
2022/09/23 08:02:15;;;;;;;1.00;0.50;;;;;;;;;;4149308;28;20064;-39
2022/09/23 08:04:29;;;;;;;2.55;0.45;;;;;;;;;;4147430;28;20509;-39
2022/09/23 08:06:31;;;;;;;0.85;0.20;;;;;;;;;;4153565;28;20441;-39
2022/09/23 08:08:33;;;;;;;0.85;0.32;;;;;;;;;;4156157;28;20057;-39
2022/09/23 08:10:34;;;;;;;0.70;0.30;;;;;;;;;;4151408;28;20516;-39
2022/09/23 08:12:35;;;;;;;0.68;0.50;;;;;;;;;;4152502;28;20061;-39
2022/09/23 08:14:40;;;;;;;0.82;0.60;;;;;;;;;;4153653;28;20138;-39
2022/09/23 08:16:41;;;;;;;0.80;0.40;;;;;;;;;;4151792;28;20507;-39
2022/09/23 08:19:01;;;;;;;1.73;0.40;;;;;;;;;;4153261;28;20386;-39
2022/09/23 08:21:03;;;;;;;2.28;0.60;;;;;;;;;;4147780;28;20580;-39
2022/09/23 08:23:04;;;;;;;1.65;0.30;;;;;;;;;;4147065;28;20159;-39
2022/09/23 08:25:05;;;;;;;1.05;0.57;;;;;;;;;;4155389;28;20053;-39
2022/09/23 08:27:09;;;;;;;0.60;0.45;;;;;;;;;;4153835;28;20053;-39
2022/09/23 08:29:14;;;;;;;2.03;0.55;;;;;;;;;;4153416;28;20045;-39
2022/09/23 08:31:15;;;;;;;1.00;0.40;;;;;;;;;;4153997;28;20061;-39
2022/09/23 08:33:17;;;;;;;0.88;0.40;;;;;;;;;;4149634;28;21031;-39
2022/09/23 08:35:19;;;;;;;1.38;0.32;;;;;;;;;;4151297;28;20108;-39
2022/09/23 08:37:20;;;;;;;0.47;0.32;;;;;;;;;;4148994;28;20049;-40
2022/09/23 08:39:22;;;;;;;1.08;0.50;;;;;;;;;;4134315;28;20479;-39
2022/09/23 08:41:48;;;;;;;1.13;0.43;;;;;;;;;;4151659;28;20623;-39
2022/09/23 08:43:54;;;;;;;0.55;0.40;;;;;;;;;;4132310;28;20058;-39
2022/09/23 08:45:59;;;;;;;0.90;0.47;;;;;;;;;;4143482;28;20057;-40
2022/09/23 08:48:23;;;;;;;2.20;0.63;;;;;;;;;;4148790;28;20540;-39
2022/09/23 08:50:32;;;;;;;1.00;0.45;;;;;;;;;;4144170;28;20143;-40
2022/09/23 08:52:38;;;;;;;0.93;0.50;;;;;;;;;;4147087;28;20497;-39
2022/09/23 08:54:39;;;;;;;0.20;0.20;;;;;;;;;;4151172;28;20443;-39
2022/09/23 08:56:43;;;;;;;0.93;0.50;;;;;;;;;;4155122;28;20497;-39
2022/09/23 08:58:54;;;;;;;0.45;0.20;;;;;;;;;;4151403;28;20092;-39
2022/09/23 09:01:35;;;;;;;2.05;0.40;;;;;;;;;;4152510;28;20100;-39
2022/09/23 09:03:49;;;;;;;0.77;0.45;;;;;;;;;;4153114;28;20069;-39
2022/09/23 09:05:51;;;;;;;0.90;0.38;;;;;;;;;;4153558;28;20493;-40
2022/09/23 09:07:54;;;;;;;0.90;0.50;;;;;;;;;;4144532;28;20049;-39
2022/09/23 09:10:08;;;;;;;2.28;0.40;;;;;;;;;;4150983;28;20053;-39
2022/09/23 09:12:24;;;;;;;0.90;0.50;;;;;;;;;;4152018;28;20123;-39
2022/09/23 09:14:28;;;;;;;0.70;0.50;;;;;;;;;;4136533;28;20057;-40
2022/09/23 09:16:47;;;;;;;1.83;0.50;;;;;;;;;;4155649;28;20424;-39
2022/09/23 09:18:54;;;;;;;2.17;0.55;;;;;;;;;;4152854;28;20123;-39
2022/09/23 09:21:08;;;;;;;1.33;0.47;;;;;;;;;;4154748;28;20092;-39
2022/09/23 09:23:10;;;;;;;1.30;0.98;;;;;;;;;;4153229;28;20095;-39
2022/09/23 09:25:24;;;;;;;0.82;0.57;;;;;;;;;;4147436;28;20144;-39
2022/09/23 09:27:25;;;;;;;2.63;0.70;;;;;;;;;;4145673;28;20088;-39
2022/09/23 09:29:31;;;;;;;2.92;0.63;;;;;;;;;;4145348;28;20057;-39
2022/09/23 09:31:37;;;;;;;1.13;0.70;;;;;;;;;;4152306;28;20103;-40
2022/09/23 09:34:10;;;;;;;1.98;0.80;;;;;;;;;;4151172;28;20145;-39
2022/09/23 09:36:43;;;;;;;1.80;0.60;;;;;;;;;;4159494;28;20053;-48
2022/09/23 09:38:44;;;;;;;2.58;1.00;;;;;;;;;;4151845;28;20053;-39
2022/09/23 09:40:46;;;;;;;0.70;0.50;;;;;;;;;;4149688;28;20584;-39
2022/09/23 09:42:49;;;;;;;0.93;0.60;;;;;;;;;;4156021;28;21490;-39
2022/09/23 09:45:00;;;;;;;1.85;0.63;;;;;;;;;;4150409;28;20057;-39
2022/09/23 09:47:27;;;;;;;1.00;0.70;;;;;;;;;;4145044;28;20099;-39
2022/09/23 09:49:59;;;;;;;1.05;0.57;;;;;;;;;;4154414;28;20065;-39
2022/09/23 09:52:18;;;;;;;1.25;0.52;;;;;;;;;;4150647;28;20076;-39
2022/09/23 09:54:23;;;;;;;2.55;0.70;;;;;;;;;;4154470;28;20065;-39
2022/09/23 09:56:30;;;;;;;1.27;0.60;;;;;;;;;;4156612;28;20103;-38
2022/09/23 09:58:51;;;;;;;0.95;0.65;;;;;;;;;;4157817;28;20064;-40
2022/09/23 10:00:52;;;;;;;1.00;0.55;;;;;;;;;;4155126;28;20053;-38
2022/09/23 10:03:01;;;;;;;0.47;0.47;;;;;;;;;;4158978;28;20073;-39
2022/09/23 10:05:05;;;;;;;1.25;0.75;;;;;;;;;;4155489;28;20057;-39
2022/09/23 10:07:11;;;;;;;1.08;0.40;;;;;;;;;;4158044;28;20054;-39
2022/09/23 10:09:18;;;;;;;2.33;0.43;;;;;;;;;;4160164;28;20103;-39
2022/09/23 10:11:19;;;;;;;2.50;0.60;;;;;;;;;;4160965;28;20065;-43
2022/09/23 10:13:25;;;;;;;0.47;0.45;;;;;;;;;;4160261;28;20131;-40
2022/09/23 10:15:32;;;;;;;0.82;0.65;;;;;;;;;;4159611;28;20669;-41
2022/09/23 10:17:34;;;;;;;2.38;0.95;;;;;;;;;;4149385;28;20485;-42
2022/09/23 10:19:37;;;;;;;2.42;0.88;;;;;;;;;;4150335;28;20064;-42
2022/09/23 10:21:40;;;;;;;0.93;0.50;;;;;;;;;;4156202;28;20061;-42
2022/09/23 10:23:47;;;;;;;2.70;0.70;;;;;;;;;;4152190;28;20091;-42
2022/09/23 10:26:05;;;;;;;0.80;0.60;;;;;;;;;;4155296;28;20095;-42
2022/09/23 10:28:40;;;;;;;1.55;0.77;;;;;;;;;;4154466;28;20104;-42
2022/09/23 10:31:12;;;;;;;1.25;0.65;;;;;;;;;;4149950;28;20057;-42
2022/09/23 10:33:25;;;;;;;2.30;0.63;;;;;;;;;;4148192;28;20065;-41
2022/09/23 10:35:27;;;;;;;2.25;0.75;;;;;;;;;;4155288;28;20374;-40
2022/09/23 10:37:52;;;;;;;2.15;0.88;;;;;;;;;;4156207;28;20053;-42
2022/09/23 10:47:33;;;;;;;1.00;0.55;;;;;;;;;;4152610;28;20049;-41
2022/09/23 10:49:34;;;;;;;1.20;0.80;;;;;;;;;;4153867;28;20064;-42
2022/09/23 10:52:09;;;;;;;2.38;0.60;;;;;;;;;;4155481;28;20139;-41
2022/09/23 10:54:28;;;;;;;2.28;1.00;;;;;;;;;;4151496;28;20057;-41
2022/09/23 10:56:36;;;;;;;1.03;0.70;;;;;;;;;;4147872;28;20057;-43
2022/09/23 10:59:01;;;;;;;2.75;0.68;;;;;;;;;;4156574;28;20062;-42
2022/09/23 11:01:14;;;;;;;1.00;0.50;;;;;;;;;;4148971;28;20076;-40
2022/09/23 11:03:37;;;;;;;1.52;0.70;;;;;;;;;;4151234;28;20629;-41
2022/09/23 11:05:56;;;;;;;1.75;0.73;;;;;;;;;;4156287;28;20123;-41
2022/09/23 11:08:01;;;;;;;4.45;0.45;;;;;;;;;;4155111;28;20053;-40
2022/09/23 11:10:20;;;;;;;1.42;1.10;;;;;;;;;;4157136;28;20143;-40
2022/09/23 11:12:37;;;;;;;2.33;0.88;;;;;;;;;;4154342;28;20456;-40
2022/09/23 11:15:02;;;;;;;2.30;0.70;;;;;;;;;;4153925;28;20049;-40
2022/09/23 11:17:16;;;;;;;1.00;0.55;;;;;;;;;;4153321;28;20041;-39
2022/09/23 11:19:49;;;;;;;1.25;0.70;;;;;;;;;;4137491;28;20397;-40
2022/09/23 11:22:36;;;;;;;1.13;0.60;;;;;;;;;;4152837;28;20103;-40
2022/09/23 11:24:40;;;;;;;1.52;0.88;;;;;;;;;;4149490;28;20107;-40
2022/09/23 11:27:04;;;;;;;0.40;0.40;;;;;;;;;;4152618;28;20064;-40
2022/09/23 11:29:24;;;;;;;1.30;0.68;;;;;;;;;;4151807;28;20559;-40
2022/09/23 11:32:07;;;;;;;4.95;0.55;;;;;;;;;;4150471;28;20076;-41
2022/09/23 11:34:38;;;;;;;2.30;0.32;;;;;;;;;;4154769;28;20115;-41
2022/09/23 11:36:45;;;;;;;1.10;0.70;;;;;;;;;;4155071;28;20108;-43
2022/09/23 11:38:48;;;;;;;2.05;0.50;;;;;;;;;;4149001;28;20096;-42
2022/09/23 11:40:53;;;;;;;1.38;0.60;;;;;;;;;;4134748;28;20084;-41
2022/09/23 11:43:09;;;;;;;0.93;0.55;;;;;;;;;;4150034;28;20083;-41
2022/09/23 11:45:17;;;;;;;0.38;0.38;;;;;;;;;;4152473;28;20137;-41
2022/09/23 11:47:26;;;;;;;2.15;1.15;;;;;;;;;;4152560;28;20512;-41
2022/09/23 11:49:38;;;;;;;1.38;0.52;;;;;;;;;;4154336;28;20068;-41
2022/09/23 11:51:45;;;;;;;0.63;0.40;;;;;;;;;;4151982;28;20740;-40
2022/09/23 11:53:50;;;;;;;1.42;0.45;;;;;;;;;;4150957;28;20139;-42
2022/09/23 11:56:04;;;;;;;0.52;0.40;;;;;;;;;;4153871;28;20103;-41
2022/09/23 11:58:18;;;;;;;2.72;0.80;;;;;;;;;;4146135;28;20049;-41
2022/09/23 12:00:23;;;;;;;2.35;0.60;;;;;;;;;;4142981;28;20057;-40
2022/09/23 12:02:38;;;;;;;1.27;0.68;;;;;;;;;;4149036;28;20057;-41
2022/09/23 12:04:46;;;;;;;0.60;0.40;;;;;;;;;;4152611;28;20060;-40
2022/09/23 12:06:53;;;;;;;2.05;0.57;;;;;;;;;;4152656;28;20111;-41
2022/09/23 12:09:00;;;;;;;0.75;0.52;;;;;;;;;;4150885;28;20049;-40
2022/09/23 12:11:09;;;;;;;1.40;0.52;;;;;;;;;;4152524;28;20053;-41
2022/09/23 12:13:52;;;;;;;2.58;0.47;;;;;;;;;;4157112;28;20060;-42
2022/09/23 12:16:06;;;;;;;1.27;0.52;;;;;;;;;;4156707;28;20053;-41
2022/09/23 12:18:19;;;;;;;1.27;0.47;;;;;;;;;;4154289;28;20440;-42
2022/09/23 12:20:33;;;;;;;0.98;0.50;;;;;;;;;;4152488;28;20064;-42
2022/09/23 12:22:52;;;;;;;1.75;0.50;;;;;;;;;;4154216;28;20554;-40
2022/09/23 12:25:04;;;;;;;2.20;0.50;;;;;;;;;;4148839;28;20057;-40
2022/09/23 12:27:09;;;;;;;5.45;0.73;;;;;;;;;;4151850;28;20049;-39
2022/09/23 12:29:12;;;;;;;2.00;0.63;;;;;;;;;;4156909;28;20058;-39
2022/09/23 12:31:29;;;;;;;1.77;0.47;;;;;;;;;;4154590;28;20075;-39
2022/09/23 12:33:32;;;;;;;1.98;0.68;;;;;;;;;;4158872;28;20527;-41
2022/09/23 12:35:44;;;;;;;2.28;0.30;;;;;;;;;;4160427;28;20489;-39
2022/09/23 12:37:45;;;;;;;3.05;0.50;;;;;;;;;;4156645;28;20071;-39
2022/09/23 12:39:46;;;;;;;1.00;0.40;;;;;;;;;;4155803;28;20501;-40
2022/09/23 12:41:49;;;;;;;0.60;0.32;;;;;;;;;;4157825;28;20436;-39
2022/09/23 12:43:55;;;;;;;2.05;0.40;;;;;;;;;;4138810;28;20205;-40
2022/09/23 12:46:16;;;;;;;1.88;0.22;;;;;;;;;;4152982;28;20066;-39
2022/09/23 12:48:16;;;;;;;;;;;;;;;;;;4150228;28;20500;-40
2022/09/23 12:50:49;;;;;;;0.25;0.25;;;;;;;;;;4149686;28;20047;-40
2022/09/23 12:52:50;;;;;;;0.68;0.30;;;;;;;;;;4158512;28;20103;-40